createdAt,value
2018-03-31T00:00:43.635Z,27.17
2018-03-31T00:03:15.109Z,27.14
2018-03-31T00:05:46.185Z,27.21
2018-03-31T00:08:17.376Z,27.20
2018-03-31T00:10:48.629Z,27.10
2018-03-31T00:13:19.104Z,27.07
2018-03-31T00:15:51.006Z,27.10
2018-03-31T00:18:21.954Z,27.10
2018-03-31T00:20:52.889Z,27.08
2018-03-31T00:25:28.271Z,27.17
2018-03-31T00:27:59.657Z,27.10
2018-03-31T00:30:30.135Z,27.05
2018-03-31T00:33:00.830Z,27.11
2018-03-31T00:35:32.185Z,27.08
2018-03-31T00:38:02.431Z,27.16
2018-03-31T00:40:33.990Z,27.16
2018-03-31T00:43:05.286Z,27.14
2018-03-31T00:45:35.845Z,27.13
2018-03-31T00:48:07.226Z,27.15
2018-03-31T00:50:37.442Z,27.13
2018-03-31T00:53:07.842Z,27.19
2018-03-31T00:57:26.875Z,27.15
2018-03-31T00:59:57.285Z,27.22
2018-03-31T01:02:28.298Z,27.15
2018-03-31T01:04:58.758Z,27.19
2018-03-31T01:09:26.008Z,27.22
2018-03-31T01:11:56.280Z,27.27
2018-03-31T01:14:26.654Z,27.40
2018-03-31T01:16:56.315Z,27.34
2018-03-31T01:19:26.659Z,27.32
2018-03-31T01:21:57.214Z,27.34
2018-03-31T01:24:27.443Z,27.37
2018-03-31T01:27:42.927Z,27.42
2018-03-31T01:30:13.264Z,27.38
2018-03-31T01:32:43.671Z,27.34
2018-03-31T01:35:13.410Z,27.31
2018-03-31T01:37:43.664Z,27.31
2018-03-31T01:40:13.363Z,27.24
2018-03-31T01:42:43.671Z,27.33
2018-03-31T01:45:13.585Z,27.33
2018-03-31T01:47:43.797Z,27.27
2018-03-31T01:50:14.203Z,27.24
2018-03-31T01:52:44.577Z,27.24
2018-03-31T01:57:54.852Z,27.24
2018-03-31T02:00:25.847Z,27.28
2018-03-31T02:02:56.297Z,27.21
2018-03-31T02:05:26.748Z,27.19
2018-03-31T02:07:57.753Z,27.24
2018-03-31T02:10:28.287Z,27.27
2018-03-31T02:14:17.637Z,27.29
2018-03-31T02:16:48.767Z,27.30
2018-03-31T02:19:19.256Z,27.29
2018-03-31T02:21:49.835Z,27.28
2018-03-31T02:24:20.295Z,27.26
2018-03-31T02:26:50.439Z,27.30
2018-03-31T02:29:20.823Z,27.32
2018-03-31T02:31:51.275Z,27.27
2018-03-31T02:34:21.431Z,27.27
2018-03-31T02:38:03.104Z,27.08
2018-03-31T02:40:33.590Z,26.94
2018-03-31T02:45:02.871Z,27.00
2018-03-31T02:47:33.284Z,27.08
2018-03-31T02:50:03.627Z,27.03
2018-03-31T02:52:33.958Z,26.86
2018-03-31T02:55:05.305Z,26.81
2018-03-31T02:57:36.711Z,26.76
2018-03-31T03:00:06.397Z,26.76
2018-03-31T03:02:38.296Z,26.77
2018-03-31T03:09:03.430Z,26.83
2018-03-31T03:11:33.695Z,26.85
2018-03-31T03:14:04.655Z,26.70
2018-03-31T03:16:37.956Z,26.68
2018-03-31T03:19:08.292Z,26.66
2018-03-31T03:21:38.871Z,26.67
2018-03-31T03:24:09.956Z,26.70
2018-03-31T03:26:40.300Z,26.77
2018-03-31T03:30:01.888Z,26.78
2018-03-31T03:32:32.311Z,26.76
2018-03-31T03:35:02.793Z,26.74
2018-03-31T03:37:33.687Z,26.73
2018-03-31T03:40:03.795Z,26.73
2018-03-31T03:42:33.683Z,26.87
2018-03-31T03:45:03.482Z,26.85
2018-03-31T03:47:33.414Z,26.80
2018-03-31T03:50:03.871Z,26.81
2018-03-31T03:53:09.155Z,26.80
2018-03-31T03:57:51.967Z,26.95
2018-03-31T04:00:22.273Z,26.93
2018-03-31T04:02:52.324Z,26.83
2018-03-31T04:05:23.603Z,26.87
2018-03-31T04:07:53.800Z,26.82
2018-03-31T04:10:23.409Z,26.82
2018-03-31T04:12:53.814Z,26.79
2018-03-31T04:15:24.406Z,26.80
2018-03-31T04:17:54.785Z,26.95
2018-03-31T04:20:25.232Z,26.86
2018-03-31T04:22:55.622Z,26.74
2018-03-31T04:28:10.028Z,26.75
2018-03-31T04:30:40.416Z,26.75
2018-03-31T04:33:10.855Z,26.73
2018-03-31T04:36:51.026Z,26.74
2018-03-31T04:39:22.431Z,26.76
2018-03-31T04:41:52.369Z,26.73
2018-03-31T04:44:22.707Z,26.72
2018-03-31T04:46:52.349Z,26.93
2018-03-31T04:49:22.716Z,26.84
2018-03-31T04:58:40.149Z,26.72
2018-03-31T05:01:10.302Z,26.71
2018-03-31T05:03:41.711Z,26.74
2018-03-31T05:06:11.680Z,26.70
2018-03-31T05:08:41.368Z,26.76
2018-03-31T05:11:11.712Z,26.77
2018-03-31T05:13:41.893Z,26.76
2018-03-31T05:16:12.506Z,26.80
2018-03-31T05:18:42.723Z,26.73
2018-03-31T05:21:12.369Z,26.72
2018-03-31T05:23:42.807Z,26.68
2018-03-31T05:26:13.310Z,26.66
2018-03-31T05:28:43.645Z,26.63
2018-03-31T05:31:13.716Z,26.63
2018-03-31T05:33:44.913Z,26.58
2018-03-31T05:36:15.300Z,26.67
2018-03-31T05:38:45.632Z,26.68
2018-03-31T05:41:15.740Z,26.58
2018-03-31T05:43:45.413Z,26.61
2018-03-31T05:46:15.803Z,26.57
2018-03-31T05:48:46.309Z,26.53
2018-03-31T05:51:16.730Z,26.59
2018-03-31T05:53:46.408Z,26.67
2018-03-31T05:56:16.947Z,26.65
2018-03-31T05:58:47.329Z,26.60
2018-03-31T06:01:17.849Z,26.60
2018-03-31T06:03:48.198Z,26.68
2018-03-31T06:06:18.626Z,26.64
2018-03-31T06:08:49.725Z,26.69
2018-03-31T06:11:19.915Z,26.69
2018-03-31T06:13:50.354Z,26.68
2018-03-31T06:16:20.899Z,26.73
2018-03-31T06:18:51.233Z,26.68
2018-03-31T06:21:21.748Z,26.66
2018-03-31T06:23:51.699Z,26.69
2018-03-31T06:26:21.473Z,26.66
2018-03-31T06:28:51.757Z,26.70
2018-03-31T06:31:21.459Z,26.64
2018-03-31T06:33:51.824Z,26.56
2018-03-31T06:36:22.447Z,26.64
2018-03-31T06:38:53.730Z,26.58
2018-03-31T06:41:23.479Z,26.57
2018-03-31T06:43:54.014Z,26.59
2018-03-31T06:46:24.365Z,26.55
2018-03-31T06:48:54.922Z,26.57
2018-03-31T06:51:25.331Z,26.54
2018-03-31T06:53:56.147Z,26.57
2018-03-31T06:56:26.760Z,26.52
2018-03-31T06:58:56.483Z,26.53
2018-03-31T07:01:26.758Z,26.54
2018-03-31T07:03:56.488Z,26.49
2018-03-31T07:06:26.874Z,26.54
2018-03-31T07:08:57.188Z,26.57
2018-03-31T07:11:27.748Z,26.56
2018-03-31T07:15:55.470Z,26.52
2018-03-31T07:20:49.947Z,26.50
2018-03-31T07:24:12.041Z,26.53
2018-03-31T07:26:42.943Z,26.55
2018-03-31T07:29:13.911Z,26.48
2018-03-31T07:31:44.834Z,26.47
2018-03-31T07:34:15.770Z,26.45
2018-03-31T07:36:46.165Z,26.47
2018-03-31T07:39:16.925Z,26.45
2018-03-31T07:41:48.094Z,26.49
2018-03-31T07:44:18.892Z,26.50
2018-03-31T07:49:19.057Z,26.44
2018-03-31T07:51:50.443Z,26.41
2018-03-31T07:54:21.770Z,26.40
2018-03-31T07:56:51.980Z,26.38
2018-03-31T07:59:22.902Z,26.35
2018-03-31T08:01:54.120Z,26.26
2018-03-31T08:04:25.135Z,26.25
2018-03-31T08:06:55.878Z,26.27
2018-03-31T08:09:26.983Z,26.27
2018-03-31T08:11:58.132Z,26.26
2018-03-31T08:14:29.042Z,26.29
2018-03-31T08:16:59.814Z,26.18
2018-03-31T08:19:30.056Z,26.16
2018-03-31T08:22:00.903Z,26.24
2018-03-31T08:24:31.816Z,26.23
2018-03-31T08:27:02.042Z,26.25
2018-03-31T08:29:33.075Z,26.30
2018-03-31T08:32:04.182Z,26.35
2018-03-31T08:34:35.273Z,26.26
2018-03-31T08:37:06.952Z,26.22
2018-03-31T08:39:37.949Z,26.22
2018-03-31T08:42:08.895Z,26.07
2018-03-31T08:44:40.104Z,26.08
2018-03-31T08:47:11.111Z,26.09
2018-03-31T08:49:41.875Z,26.06
2018-03-31T08:52:13.103Z,26.16
2018-03-31T08:54:44.112Z,26.25
2018-03-31T08:57:15.007Z,26.28
2018-03-31T08:59:46.181Z,26.30
2018-03-31T09:02:17.128Z,26.27
2018-03-31T09:04:47.981Z,26.21
2018-03-31T09:07:18.768Z,26.11
2018-03-31T09:09:50.059Z,26.01
2018-03-31T09:12:21.071Z,25.95
2018-03-31T09:14:52.233Z,25.95
2018-03-31T09:17:23.173Z,25.97
2018-03-31T09:19:54.296Z,25.94
2018-03-31T09:22:25.740Z,25.91
2018-03-31T09:24:56.515Z,25.87
2018-03-31T09:27:27.966Z,25.91
2018-03-31T09:29:59.098Z,25.87
2018-03-31T09:32:30.020Z,25.82
2018-03-31T09:35:01.133Z,25.73
2018-03-31T09:37:31.962Z,25.75
2018-03-31T09:40:03.108Z,25.77
2018-03-31T09:42:33.772Z,25.73
2018-03-31T09:45:05.074Z,25.72
2018-03-31T09:47:36.094Z,25.75
2018-03-31T09:50:07.014Z,25.82
2018-03-31T09:52:38.165Z,25.92
2018-03-31T09:55:08.903Z,25.76
2018-03-31T09:57:40.714Z,25.69
2018-03-31T10:00:12.230Z,25.69
2018-03-31T10:02:43.783Z,25.69
2018-03-31T10:05:15.103Z,25.66
2018-03-31T10:07:46.242Z,25.60
2018-03-31T10:10:17.312Z,25.62
2018-03-31T10:12:49.146Z,25.67
2018-03-31T10:15:20.108Z,25.66
2018-03-31T10:17:51.000Z,25.66
2018-03-31T10:20:23.373Z,25.62
2018-03-31T10:22:55.040Z,25.68
2018-03-31T10:25:26.071Z,25.72
2018-03-31T10:27:56.797Z,25.72
2018-03-31T10:30:27.087Z,25.71
2018-03-31T10:32:58.202Z,25.63
2018-03-31T10:35:29.255Z,25.59
2018-03-31T10:38:00.297Z,25.55
2018-03-31T10:40:31.291Z,25.51
2018-03-31T10:43:01.983Z,25.46
2018-03-31T10:45:32.789Z,25.45
2018-03-31T10:48:03.803Z,25.46
2018-03-31T10:50:34.153Z,25.45
2018-03-31T10:53:04.886Z,25.42
2018-03-31T10:55:36.111Z,25.41
2018-03-31T10:58:07.079Z,25.42
2018-03-31T11:00:37.813Z,25.38
2018-03-31T11:03:08.991Z,25.36
2018-03-31T11:05:39.802Z,25.36
2018-03-31T11:08:09.945Z,25.34
2018-03-31T11:10:41.132Z,25.36
2018-03-31T11:13:12.250Z,25.35
2018-03-31T11:16:11.937Z,25.38
2018-03-31T11:18:43.225Z,25.44
2018-03-31T11:21:14.102Z,25.45
2018-03-31T11:23:45.065Z,25.35
2018-03-31T11:26:16.422Z,25.28
2018-03-31T11:28:47.426Z,25.26
2018-03-31T11:31:18.990Z,25.28
2018-03-31T11:33:50.038Z,25.29
2018-03-31T11:36:21.506Z,25.31
2018-03-31T11:38:53.212Z,25.28
2018-03-31T11:41:24.161Z,25.30
2018-03-31T11:43:55.102Z,25.31
2018-03-31T11:46:26.047Z,25.29
2018-03-31T11:48:57.125Z,25.26
2018-03-31T11:51:28.129Z,25.24
2018-03-31T11:53:58.977Z,25.23
2018-03-31T11:56:29.919Z,25.34
2018-03-31T11:59:01.728Z,25.23
2018-03-31T12:01:32.818Z,25.21
2018-03-31T12:04:03.012Z,25.16
2018-03-31T12:06:33.814Z,25.14
2018-03-31T12:09:04.424Z,25.15
2018-03-31T12:11:36.247Z,25.11
2018-03-31T12:14:06.994Z,25.09
2018-03-31T12:16:38.433Z,25.09
2018-03-31T12:19:09.725Z,25.07
2018-03-31T12:21:41.025Z,25.05
2018-03-31T12:24:12.182Z,25.06
2018-03-31T12:26:43.268Z,25.05
2018-03-31T12:29:14.064Z,25.05
2018-03-31T12:31:45.195Z,25.02
2018-03-31T12:34:16.235Z,24.99
2018-03-31T12:36:47.263Z,25.01
2018-03-31T12:39:18.201Z,25.03
2018-03-31T12:41:49.167Z,25.03
2018-03-31T12:44:20.306Z,25.05
2018-03-31T12:46:51.829Z,25.07
2018-03-31T12:49:22.064Z,25.00
2018-03-31T12:51:53.333Z,24.95
2018-03-31T12:54:24.262Z,24.95
2018-03-31T12:56:55.202Z,24.93
2018-03-31T12:59:26.304Z,24.91
2018-03-31T13:01:57.294Z,24.91
2018-03-31T13:04:28.216Z,24.93
2018-03-31T13:06:59.005Z,24.96
2018-03-31T13:09:29.822Z,24.97
2018-03-31T13:12:01.253Z,24.98
2018-03-31T13:14:32.009Z,24.96
2018-03-31T13:17:03.124Z,24.93
2018-03-31T13:19:34.229Z,24.90
2018-03-31T13:22:05.009Z,24.86
2018-03-31T13:24:37.033Z,24.88
2018-03-31T13:27:07.929Z,24.86
2018-03-31T13:29:38.838Z,24.86
2018-03-31T13:32:09.977Z,24.80
2018-03-31T13:34:41.341Z,24.76
2018-03-31T13:37:12.991Z,24.78
2018-03-31T13:39:44.035Z,24.77
2018-03-31T13:42:15.180Z,24.71
2018-03-31T13:44:46.109Z,24.72
2018-03-31T13:47:17.252Z,24.73
2018-03-31T13:49:48.194Z,24.71
2018-03-31T13:52:19.146Z,24.68
2018-03-31T13:54:50.095Z,24.70
2018-03-31T13:57:20.831Z,24.71
2018-03-31T13:59:52.151Z,24.68
2018-03-31T14:02:22.931Z,24.63
2018-03-31T14:04:53.838Z,24.63
2018-03-31T14:07:24.098Z,24.66
2018-03-31T14:09:54.963Z,24.66
2018-03-31T14:12:26.263Z,24.68
2018-03-31T14:14:57.203Z,24.68
2018-03-31T14:17:28.143Z,24.70
2018-03-31T14:19:59.041Z,24.62
2018-03-31T14:22:30.198Z,24.63
2018-03-31T14:25:01.027Z,24.57
2018-03-31T14:27:32.119Z,24.53
2018-03-31T14:30:02.955Z,24.51
2018-03-31T14:32:34.092Z,24.56
2018-03-31T14:35:05.323Z,24.58
2018-03-31T14:37:36.447Z,24.59
2018-03-31T14:40:08.406Z,24.61
2018-03-31T14:42:40.022Z,24.62
2018-03-31T14:45:11.012Z,24.60
2018-03-31T14:47:42.283Z,24.57
2018-03-31T14:50:13.026Z,24.56
2018-03-31T14:52:45.034Z,24.58
2018-03-31T14:55:16.111Z,24.57
2018-03-31T14:57:47.251Z,24.58
2018-03-31T15:00:19.207Z,24.55
2018-03-31T15:02:50.040Z,24.51
2018-03-31T15:05:20.964Z,24.50
2018-03-31T15:07:51.872Z,24.49
2018-03-31T15:10:22.132Z,24.46
2018-03-31T15:12:53.594Z,24.42
2018-03-31T15:15:25.221Z,24.43
2018-03-31T15:17:56.107Z,24.48
2018-03-31T15:20:27.817Z,24.45
2018-03-31T15:22:59.118Z,24.47
2018-03-31T15:25:30.769Z,24.47
2018-03-31T15:31:20.861Z,24.46
2018-03-31T15:33:51.820Z,24.41
2018-03-31T15:36:22.266Z,24.39
2018-03-31T15:38:53.300Z,24.47
2018-03-31T15:41:24.052Z,24.50
2018-03-31T15:43:54.856Z,24.53
2018-03-31T15:46:25.821Z,24.53
2018-03-31T15:48:57.025Z,24.54
2018-03-31T15:51:28.201Z,24.48
2018-03-31T15:53:59.085Z,24.46
2018-03-31T15:56:30.277Z,24.43
2018-03-31T15:59:01.455Z,24.40
2018-03-31T16:01:32.610Z,24.47
2018-03-31T16:04:03.954Z,24.49
2018-03-31T16:06:34.186Z,24.48
2018-03-31T16:09:05.183Z,24.52
2018-03-31T16:11:36.124Z,24.60
2018-03-31T16:14:07.267Z,24.60
2018-03-31T16:16:38.121Z,24.62
2018-03-31T16:19:09.590Z,24.62
2018-03-31T16:21:41.041Z,24.63
2018-03-31T16:24:11.872Z,24.64
2018-03-31T16:26:42.111Z,24.66
2018-03-31T16:29:13.313Z,24.73
2018-03-31T16:31:44.252Z,24.79
2018-03-31T16:34:14.512Z,24.76
2018-03-31T16:36:45.959Z,24.76
2018-03-31T16:39:16.887Z,24.80
2018-03-31T16:41:46.602Z,24.81
2018-03-31T16:44:16.859Z,24.73
2018-03-31T16:46:46.529Z,24.76
2018-03-31T16:49:16.877Z,24.74
2018-03-31T16:51:46.531Z,24.76
2018-03-31T16:54:16.992Z,24.75
2018-03-31T16:56:47.515Z,24.74
2018-03-31T16:59:17.499Z,24.74
2018-03-31T17:01:47.880Z,24.78
2018-03-31T17:04:17.883Z,24.77
2018-03-31T17:06:47.588Z,24.77
2018-03-31T17:09:18.020Z,24.78
2018-03-31T17:11:48.327Z,24.85
2018-03-31T17:14:18.486Z,24.86
2018-03-31T17:16:49.350Z,24.98
2018-03-31T17:19:19.798Z,24.97
2018-03-31T17:21:50.053Z,24.91
2018-03-31T17:24:20.519Z,24.87
2018-03-31T17:26:51.079Z,24.82
2018-03-31T17:29:21.496Z,24.82
2018-03-31T17:31:52.047Z,24.84
2018-03-31T17:34:22.472Z,24.87
2018-03-31T17:36:52.675Z,24.87
2018-03-31T17:39:23.074Z,24.92
2018-03-31T17:41:53.536Z,24.98
2018-03-31T17:44:24.057Z,24.99
2018-03-31T17:46:54.487Z,25.00
2018-03-31T17:49:25.008Z,25.03
2018-03-31T17:51:55.543Z,25.01
2018-03-31T17:54:26.797Z,25.00
2018-03-31T17:56:57.063Z,25.01
2018-03-31T17:59:27.495Z,25.02
2018-03-31T18:01:58.097Z,25.04
2018-03-31T18:04:28.616Z,25.06
2018-03-31T18:06:58.533Z,25.06
2018-03-31T18:09:29.023Z,25.09
2018-03-31T18:11:59.423Z,25.08
2018-03-31T18:16:41.897Z,25.10
2018-03-31T18:19:11.894Z,25.13
2018-03-31T18:21:42.103Z,25.16
2018-03-31T18:24:12.518Z,25.24
2018-03-31T18:26:42.895Z,25.19
2018-03-31T18:29:12.589Z,25.16
2018-03-31T18:31:43.026Z,25.17
2018-03-31T18:34:13.530Z,25.20
2018-03-31T18:36:44.490Z,25.22
2018-03-31T18:39:14.880Z,25.31
2018-03-31T18:41:44.549Z,25.54
2018-03-31T18:44:14.977Z,25.45
2018-03-31T18:46:44.625Z,25.41
2018-03-31T18:49:14.897Z,25.41
2018-03-31T18:51:44.548Z,25.41
2018-03-31T18:54:14.936Z,25.41
2018-03-31T18:56:44.639Z,25.61
2018-03-31T18:59:15.064Z,25.49
2018-03-31T19:01:45.356Z,25.58
2018-03-31T19:04:15.684Z,25.68
2018-03-31T19:06:46.032Z,25.70
2018-03-31T19:09:16.473Z,25.67
2018-03-31T19:11:46.683Z,25.81
2018-03-31T19:14:16.987Z,25.87
2018-03-31T19:16:51.868Z,25.87
2018-03-31T19:19:22.039Z,25.74
2018-03-31T19:21:51.867Z,25.77
2018-03-31T19:24:22.272Z,25.82
2018-03-31T19:26:52.626Z,25.82
2018-03-31T19:29:24.059Z,25.75
2018-03-31T19:31:55.141Z,25.70
2018-03-31T19:34:25.569Z,25.89
2018-03-31T19:36:56.030Z,25.81
2018-03-31T19:39:31.139Z,25.80
2018-03-31T19:42:01.504Z,26.52
2018-03-31T19:44:31.688Z,26.63
2018-03-31T19:47:01.907Z,26.61
2018-03-31T19:49:32.117Z,26.68
2018-03-31T19:52:02.543Z,26.60
2018-03-31T19:54:34.461Z,26.62
2018-03-31T19:57:04.819Z,26.67
2018-03-31T19:59:35.011Z,26.70
2018-03-31T20:02:05.556Z,26.60
2018-03-31T20:04:35.914Z,26.55
2018-03-31T20:07:05.930Z,26.41
2018-03-31T20:09:35.748Z,26.39
2018-03-31T20:12:06.002Z,26.31
2018-03-31T20:14:36.447Z,26.29
2018-03-31T20:17:06.835Z,26.28
2018-03-31T20:19:37.433Z,26.25
2018-03-31T20:22:08.687Z,26.24
2018-03-31T20:24:39.101Z,26.23
2018-03-31T20:27:09.527Z,26.22
2018-03-31T20:29:39.926Z,26.22
2018-03-31T20:32:09.561Z,26.21
2018-03-31T20:34:40.038Z,26.22
2018-03-31T20:37:10.557Z,26.17
2018-03-31T20:39:41.125Z,26.14
2018-03-31T20:42:11.540Z,26.16
2018-03-31T20:44:42.058Z,26.16
2018-03-31T20:47:12.572Z,26.16
2018-03-31T20:49:43.084Z,26.16
2018-03-31T20:52:13.644Z,26.14
2018-03-31T20:54:44.107Z,26.13
2018-03-31T20:57:16.020Z,26.13
2018-03-31T20:59:45.672Z,26.11
2018-03-31T21:02:16.027Z,26.11
2018-03-31T21:04:46.115Z,26.10
2018-03-31T21:07:16.637Z,26.11
2018-03-31T21:09:47.196Z,26.11
2018-03-31T21:12:19.400Z,26.11
2018-03-31T21:14:51.005Z,26.13
2018-03-31T21:17:20.890Z,26.17
2018-03-31T21:19:51.006Z,26.16
2018-03-31T21:22:20.891Z,26.16
2018-03-31T21:24:51.114Z,26.19
2018-03-31T21:27:21.512Z,26.20
2018-03-31T21:29:51.909Z,26.21
2018-03-31T21:32:21.601Z,26.21
2018-03-31T21:34:53.179Z,26.23
2018-03-31T21:37:24.118Z,26.24
2018-03-31T21:39:54.506Z,26.25
2018-03-31T21:42:24.965Z,26.27
2018-03-31T21:44:55.020Z,26.28
2018-03-31T21:47:25.544Z,26.28
2018-03-31T21:49:55.941Z,26.28
2018-03-31T21:52:25.662Z,26.29
2018-03-31T21:54:55.951Z,26.31
2018-03-31T21:57:26.200Z,26.30
2018-03-31T21:59:56.888Z,26.31
2018-03-31T22:02:27.048Z,26.31
2018-03-31T22:04:57.554Z,26.31
2018-03-31T22:07:27.941Z,26.32
2018-03-31T22:09:58.471Z,26.32
2018-03-31T22:12:28.859Z,26.32
2018-03-31T22:15:04.115Z,26.33
2018-03-31T22:17:34.554Z,26.34
2018-03-31T22:20:05.070Z,26.36
2018-03-31T22:22:34.688Z,26.36
2018-03-31T22:25:05.074Z,26.39
2018-03-31T22:27:35.543Z,26.40
2018-03-31T22:30:06.940Z,26.40
2018-03-31T22:32:36.710Z,26.40
2018-03-31T22:35:07.833Z,26.41
2018-03-31T22:37:38.142Z,26.42
2018-03-31T22:40:08.560Z,26.44
2018-03-31T22:42:38.956Z,26.45
2018-03-31T22:45:08.639Z,26.46
2018-03-31T22:47:39.027Z,26.46
2018-03-31T22:50:08.649Z,26.45
2018-03-31T22:52:39.952Z,26.45
2018-03-31T22:55:09.705Z,26.47
2018-03-31T22:57:40.912Z,26.48
2018-03-31T23:00:11.130Z,26.50
2018-03-31T23:02:41.600Z,26.52
2018-03-31T23:05:12.957Z,26.68
2018-03-31T23:07:42.668Z,26.66
2018-03-31T23:10:16.010Z,26.61
2018-03-31T23:12:47.392Z,26.61
2018-03-31T23:15:17.667Z,26.76
2018-03-31T23:17:49.095Z,26.76
2018-03-31T23:20:19.561Z,26.74
2018-03-31T23:22:50.666Z,26.70
2018-03-31T23:25:20.592Z,26.67
2018-03-31T23:27:51.926Z,26.70
2018-03-31T23:30:22.122Z,26.69
2018-03-31T23:32:53.210Z,26.70
2018-03-31T23:35:23.637Z,26.72
2018-03-31T23:37:54.928Z,26.76
2018-03-31T23:40:25.025Z,26.78
2018-03-31T23:42:54.668Z,26.76
2018-03-31T23:45:26.281Z,26.76
2018-03-31T23:47:56.547Z,26.79
2018-03-31T23:50:26.881Z,26.78
2018-03-31T23:52:58.156Z,26.76
2018-03-31T23:55:28.703Z,26.72
2018-03-31T23:58:00.422Z,26.73
